sensor_id;sensor_type;location;lat;lon;timestamp;P1;durP1;ratioP1;P2;durP2;ratioP2
22298;SDS011;11317;51.072;17.036;2023-04-03T00:00:07;7.40;;;1.70;;
22298;SDS011;11317;51.072;17.036;2023-04-03T00:02:34;5.07;;;1.40;;
22298;SDS011;11317;51.072;17.036;2023-04-03T00:05:00;1.63;;;1.40;;
22298;SDS011;11317;51.072;17.036;2023-04-03T00:07:27;4.78;;;1.75;;
22298;SDS011;11317;51.072;17.036;2023-04-03T00:09:52;4.57;;;1.70;;
22298;SDS011;11317;51.072;17.036;2023-04-03T00:12:19;1.23;;;1.10;;
22298;SDS011;11317;51.072;17.036;2023-04-03T00:14:45;2.65;;;1.23;;
22298;SDS011;11317;51.072;17.036;2023-04-03T00:17:11;3.30;;;1.20;;
22298;SDS011;11317;51.072;17.036;2023-04-03T00:19:37;1.90;;;1.08;;
22298;SDS011;11317;51.072;17.036;2023-04-03T00:22:03;3.88;;;1.17;;
22298;SDS011;11317;51.072;17.036;2023-04-03T00:24:29;1.45;;;1.35;;
22298;SDS011;11317;51.072;17.036;2023-04-03T00:26:56;2.10;;;1.20;;
22298;SDS011;11317;51.072;17.036;2023-04-03T00:29:22;3.63;;;1.33;;
22298;SDS011;11317;51.072;17.036;2023-04-03T00:31:47;4.63;;;1.67;;
22298;SDS011;11317;51.072;17.036;2023-04-03T00:34:13;3.05;;;1.40;;
22298;SDS011;11317;51.072;17.036;2023-04-03T00:36:40;5.85;;;1.38;;
22298;SDS011;11317;51.072;17.036;2023-04-03T00:39:05;3.72;;;1.23;;
22298;SDS011;11317;51.072;17.036;2023-04-03T00:41:32;3.70;;;1.45;;
22298;SDS011;11317;51.072;17.036;2023-04-03T00:43:58;3.63;;;1.45;;
22298;SDS011;11317;51.072;17.036;2023-04-03T00:46:24;3.50;;;1.23;;
22298;SDS011;11317;51.072;17.036;2023-04-03T00:48:50;4.10;;;1.88;;
22298;SDS011;11317;51.072;17.036;2023-04-03T00:51:18;5.63;;;1.63;;
22298;SDS011;11317;51.072;17.036;2023-04-03T00:53:55;6.15;;;1.60;;
22298;SDS011;11317;51.072;17.036;2023-04-03T00:56:26;4.85;;;1.25;;
22298;SDS011;11317;51.072;17.036;2023-04-03T00:58:54;3.20;;;1.20;;
22298;SDS011;11317;51.072;17.036;2023-04-03T01:01:25;6.07;;;1.25;;
22298;SDS011;11317;51.072;17.036;2023-04-03T01:03:52;3.90;;;1.40;;
22298;SDS011;11317;51.072;17.036;2023-04-03T01:06:20;5.78;;;1.48;;
22298;SDS011;11317;51.072;17.036;2023-04-03T01:08:47;6.25;;;1.25;;
22298;SDS011;11317;51.072;17.036;2023-04-03T01:11:14;3.97;;;1.50;;
22298;SDS011;11317;51.072;17.036;2023-04-03T01:13:40;4.53;;;1.50;;
22298;SDS011;11317;51.072;17.036;2023-04-03T01:16:07;3.42;;;1.50;;
22298;SDS011;11317;51.072;17.036;2023-04-03T01:18:34;2.67;;;1.27;;
22298;SDS011;11317;51.072;17.036;2023-04-03T01:26:10;5.10;;;1.10;;
22298;SDS011;11317;51.072;17.036;2023-04-03T01:28:36;1.40;;;1.25;;
22298;SDS011;11317;51.072;17.036;2023-04-03T01:33:29;3.60;;;1.17;;
22298;SDS011;11317;51.072;17.036;2023-04-03T01:35:55;3.33;;;1.30;;
22298;SDS011;11317;51.072;17.036;2023-04-03T01:38:21;4.57;;;1.40;;
22298;SDS011;11317;51.072;17.036;2023-04-03T01:40:47;1.25;;;1.05;;
22298;SDS011;11317;51.072;17.036;2023-04-03T01:43:14;2.70;;;1.52;;
22298;SDS011;11317;51.072;17.036;2023-04-03T01:45:40;2.40;;;1.20;;
22298;SDS011;11317;51.072;17.036;2023-04-03T01:48:06;1.40;;;1.20;;
22298;SDS011;11317;51.072;17.036;2023-04-03T01:50:32;1.38;;;1.02;;
22298;SDS011;11317;51.072;17.036;2023-04-03T01:52:58;4.47;;;1.60;;
22298;SDS011;11317;51.072;17.036;2023-04-03T01:55:24;1.73;;;1.17;;
22298;SDS011;11317;51.072;17.036;2023-04-03T01:57:50;8.45;;;1.60;;
22298;SDS011;11317;51.072;17.036;2023-04-03T02:00:16;3.40;;;1.08;;
22298;SDS011;11317;51.072;17.036;2023-04-03T02:02:42;3.95;;;1.13;;
22298;SDS011;11317;51.072;17.036;2023-04-03T02:05:08;3.22;;;1.33;;
22298;SDS011;11317;51.072;17.036;2023-04-03T02:07:35;9.15;;;2.00;;
22298;SDS011;11317;51.072;17.036;2023-04-03T02:10:01;4.78;;;1.10;;
22298;SDS011;11317;51.072;17.036;2023-04-03T02:12:27;2.85;;;1.30;;
22298;SDS011;11317;51.072;17.036;2023-04-03T02:14:53;8.68;;;1.63;;
22298;SDS011;11317;51.072;17.036;2023-04-03T02:17:19;5.50;;;1.48;;
22298;SDS011;11317;51.072;17.036;2023-04-03T02:19:45;4.57;;;1.48;;
22298;SDS011;11317;51.072;17.036;2023-04-03T02:22:11;5.45;;;1.80;;
22298;SDS011;11317;51.072;17.036;2023-04-03T02:24:38;2.20;;;1.33;;
22298;SDS011;11317;51.072;17.036;2023-04-03T02:27:05;2.95;;;1.25;;
22298;SDS011;11317;51.072;17.036;2023-04-03T02:29:31;3.20;;;1.35;;
22298;SDS011;11317;51.072;17.036;2023-04-03T02:31:57;3.80;;;1.65;;
22298;SDS011;11317;51.072;17.036;2023-04-03T02:34:23;5.35;;;1.45;;
22298;SDS011;11317;51.072;17.036;2023-04-03T02:36:49;10.65;;;2.05;;
22298;SDS011;11317;51.072;17.036;2023-04-03T02:39:16;5.07;;;1.50;;
22298;SDS011;11317;51.072;17.036;2023-04-03T02:41:42;3.70;;;1.88;;
22298;SDS011;11317;51.072;17.036;2023-04-03T02:44:09;5.75;;;1.70;;
22298;SDS011;11317;51.072;17.036;2023-04-03T02:46:36;3.22;;;1.63;;
22298;SDS011;11317;51.072;17.036;2023-04-03T02:49:02;2.78;;;1.20;;
22298;SDS011;11317;51.072;17.036;2023-04-03T02:51:28;7.13;;;1.90;;
22298;SDS011;11317;51.072;17.036;2023-04-03T02:53:54;5.75;;;1.80;;
22298;SDS011;11317;51.072;17.036;2023-04-03T02:56:20;5.30;;;1.77;;
22298;SDS011;11317;51.072;17.036;2023-04-03T02:58:46;3.25;;;1.48;;
22298;SDS011;11317;51.072;17.036;2023-04-03T03:01:13;6.38;;;1.90;;
22298;SDS011;11317;51.072;17.036;2023-04-03T03:03:39;6.72;;;2.08;;
22298;SDS011;11317;51.072;17.036;2023-04-03T03:06:06;2.45;;;1.65;;
22298;SDS011;11317;51.072;17.036;2023-04-03T03:08:33;5.07;;;1.60;;
22298;SDS011;11317;51.072;17.036;2023-04-03T03:11:00;6.07;;;1.85;;
22298;SDS011;11317;51.072;17.036;2023-04-03T03:13:26;5.68;;;2.03;;
22298;SDS011;11317;51.072;17.036;2023-04-03T03:15:52;5.35;;;1.48;;
22298;SDS011;11317;51.072;17.036;2023-04-03T03:18:18;4.53;;;1.60;;
22298;SDS011;11317;51.072;17.036;2023-04-03T03:20:44;5.55;;;1.63;;
22298;SDS011;11317;51.072;17.036;2023-04-03T03:23:10;2.80;;;1.85;;
22298;SDS011;11317;51.072;17.036;2023-04-03T03:25:40;2.35;;;1.40;;
22298;SDS011;11317;51.072;17.036;2023-04-03T03:28:06;6.03;;;2.08;;
22298;SDS011;11317;51.072;17.036;2023-04-03T03:30:32;6.40;;;1.98;;
22298;SDS011;11317;51.072;17.036;2023-04-03T03:32:58;4.40;;;1.67;;
22298;SDS011;11317;51.072;17.036;2023-04-03T03:35:24;5.70;;;2.45;;
22298;SDS011;11317;51.072;17.036;2023-04-03T03:37:50;2.08;;;1.40;;
22298;SDS011;11317;51.072;17.036;2023-04-03T03:40:16;4.68;;;2.25;;
22298;SDS011;11317;51.072;17.036;2023-04-03T03:42:42;3.53;;;1.83;;
22298;SDS011;11317;51.072;17.036;2023-04-03T03:45:09;3.70;;;1.73;;
22298;SDS011;11317;51.072;17.036;2023-04-03T03:47:35;8.10;;;2.13;;
22298;SDS011;11317;51.072;17.036;2023-04-03T03:50:02;4.43;;;2.10;;
22298;SDS011;11317;51.072;17.036;2023-04-03T03:52:28;10.63;;;2.55;;
22298;SDS011;11317;51.072;17.036;2023-04-03T03:54:55;3.50;;;1.75;;
22298;SDS011;11317;51.072;17.036;2023-04-03T03:57:21;5.68;;;1.92;;
22298;SDS011;11317;51.072;17.036;2023-04-03T03:59:47;3.90;;;2.15;;
22298;SDS011;11317;51.072;17.036;2023-04-03T04:02:14;5.13;;;2.13;;
22298;SDS011;11317;51.072;17.036;2023-04-03T04:04:40;6.40;;;2.10;;
22298;SDS011;11317;51.072;17.036;2023-04-03T04:07:05;7.57;;;2.30;;
22298;SDS011;11317;51.072;17.036;2023-04-03T04:09:31;4.07;;;2.13;;
22298;SDS011;11317;51.072;17.036;2023-04-03T04:11:57;4.47;;;2.08;;
22298;SDS011;11317;51.072;17.036;2023-04-03T04:14:23;5.32;;;2.25;;
22298;SDS011;11317;51.072;17.036;2023-04-03T04:16:50;8.90;;;2.00;;
22298;SDS011;11317;51.072;17.036;2023-04-03T04:19:15;3.80;;;1.90;;
22298;SDS011;11317;51.072;17.036;2023-04-03T04:21:42;6.93;;;2.13;;
22298;SDS011;11317;51.072;17.036;2023-04-03T04:24:08;2.97;;;2.47;;
22298;SDS011;11317;51.072;17.036;2023-04-03T04:26:34;4.22;;;1.95;;
22298;SDS011;11317;51.072;17.036;2023-04-03T04:29:00;5.53;;;1.88;;
22298;SDS011;11317;51.072;17.036;2023-04-03T04:31:26;2.42;;;2.10;;
22298;SDS011;11317;51.072;17.036;2023-04-03T04:33:52;8.82;;;2.45;;
22298;SDS011;11317;51.072;17.036;2023-04-03T04:36:18;5.53;;;2.05;;
22298;SDS011;11317;51.072;17.036;2023-04-03T04:38:44;7.82;;;2.13;;
22298;SDS011;11317;51.072;17.036;2023-04-03T04:41:10;3.25;;;2.17;;
22298;SDS011;11317;51.072;17.036;2023-04-03T04:43:37;2.67;;;2.03;;
22298;SDS011;11317;51.072;17.036;2023-04-03T04:46:04;4.60;;;1.95;;
22298;SDS011;11317;51.072;17.036;2023-04-03T04:48:32;4.00;;;2.30;;
22298;SDS011;11317;51.072;17.036;2023-04-03T04:50:58;5.63;;;2.15;;
22298;SDS011;11317;51.072;17.036;2023-04-03T04:53:24;4.82;;;2.67;;
22298;SDS011;11317;51.072;17.036;2023-04-03T04:55:51;4.50;;;2.03;;
22298;SDS011;11317;51.072;17.036;2023-04-03T04:58:17;2.92;;;1.73;;
22298;SDS011;11317;51.072;17.036;2023-04-03T05:00:43;5.55;;;1.85;;
22298;SDS011;11317;51.072;17.036;2023-04-03T05:03:09;3.03;;;2.25;;
22298;SDS011;11317;51.072;17.036;2023-04-03T05:05:35;6.82;;;2.05;;
22298;SDS011;11317;51.072;17.036;2023-04-03T05:08:02;3.10;;;1.20;;
22298;SDS011;11317;51.072;17.036;2023-04-03T05:10:28;3.78;;;1.92;;
22298;SDS011;11317;51.072;17.036;2023-04-03T05:12:54;5.25;;;1.73;;
22298;SDS011;11317;51.072;17.036;2023-04-03T05:15:20;3.95;;;1.70;;
22298;SDS011;11317;51.072;17.036;2023-04-03T05:17:46;8.25;;;2.47;;
22298;SDS011;11317;51.072;17.036;2023-04-03T05:20:12;12.70;;;1.98;;
22298;SDS011;11317;51.072;17.036;2023-04-03T05:22:38;4.13;;;1.63;;
22298;SDS011;11317;51.072;17.036;2023-04-03T05:25:05;10.30;;;2.33;;
22298;SDS011;11317;51.072;17.036;2023-04-03T05:27:31;3.83;;;1.75;;
22298;SDS011;11317;51.072;17.036;2023-04-03T05:29:57;2.90;;;1.70;;
22298;SDS011;11317;51.072;17.036;2023-04-03T05:32:25;4.82;;;1.85;;
22298;SDS011;11317;51.072;17.036;2023-04-03T05:34:52;6.93;;;1.88;;
22298;SDS011;11317;51.072;17.036;2023-04-03T05:37:19;2.97;;;1.58;;
22298;SDS011;11317;51.072;17.036;2023-04-03T05:39:45;3.97;;;1.48;;
22298;SDS011;11317;51.072;17.036;2023-04-03T05:42:11;2.85;;;1.90;;
22298;SDS011;11317;51.072;17.036;2023-04-03T05:44:38;4.22;;;1.52;;
22298;SDS011;11317;51.072;17.036;2023-04-03T05:47:04;2.83;;;1.85;;
22298;SDS011;11317;51.072;17.036;2023-04-03T05:49:30;6.00;;;2.25;;
22298;SDS011;11317;51.072;17.036;2023-04-03T05:51:56;3.60;;;1.67;;
22298;SDS011;11317;51.072;17.036;2023-04-03T05:54:26;3.85;;;1.20;;
22298;SDS011;11317;51.072;17.036;2023-04-03T05:56:53;2.55;;;1.80;;
22298;SDS011;11317;51.072;17.036;2023-04-03T05:59:20;2.85;;;1.70;;
22298;SDS011;11317;51.072;17.036;2023-04-03T06:01:46;2.30;;;1.52;;
22298;SDS011;11317;51.072;17.036;2023-04-03T06:04:12;5.18;;;2.08;;
22298;SDS011;11317;51.072;17.036;2023-04-03T06:09:23;5.47;;;1.60;;
22298;SDS011;11317;51.072;17.036;2023-04-03T06:11:50;5.18;;;2.00;;
22298;SDS011;11317;51.072;17.036;2023-04-03T06:14:17;2.67;;;1.65;;
22298;SDS011;11317;51.072;17.036;2023-04-03T06:16:43;3.63;;;2.10;;
22298;SDS011;11317;51.072;17.036;2023-04-03T06:19:09;6.75;;;1.60;;
22298;SDS011;11317;51.072;17.036;2023-04-03T06:21:36;6.00;;;1.50;;
22298;SDS011;11317;51.072;17.036;2023-04-03T06:24:05;3.22;;;2.00;;
22298;SDS011;11317;51.072;17.036;2023-04-03T06:26:32;3.05;;;1.88;;
22298;SDS011;11317;51.072;17.036;2023-04-03T06:28:59;3.60;;;1.77;;
22298;SDS011;11317;51.072;17.036;2023-04-03T06:31:25;1.90;;;1.50;;
22298;SDS011;11317;51.072;17.036;2023-04-03T06:33:51;6.95;;;2.10;;
22298;SDS011;11317;51.072;17.036;2023-04-03T06:36:18;3.47;;;1.95;;
22298;SDS011;11317;51.072;17.036;2023-04-03T06:38:47;2.17;;;1.65;;
22298;SDS011;11317;51.072;17.036;2023-04-03T06:41:14;3.65;;;2.30;;
22298;SDS011;11317;51.072;17.036;2023-04-03T06:43:41;3.22;;;1.73;;
22298;SDS011;11317;51.072;17.036;2023-04-03T06:46:12;3.53;;;1.55;;
22298;SDS011;11317;51.072;17.036;2023-04-03T06:48:42;2.40;;;1.50;;
22298;SDS011;11317;51.072;17.036;2023-04-03T06:51:16;3.92;;;1.60;;
22298;SDS011;11317;51.072;17.036;2023-04-03T06:56:19;5.05;;;2.10;;
22298;SDS011;11317;51.072;17.036;2023-04-03T06:58:46;2.25;;;1.63;;
22298;SDS011;11317;51.072;17.036;2023-04-03T07:01:14;2.88;;;1.75;;
22298;SDS011;11317;51.072;17.036;2023-04-03T07:03:41;4.28;;;1.70;;
22298;SDS011;11317;51.072;17.036;2023-04-03T07:06:09;2.70;;;1.83;;
22298;SDS011;11317;51.072;17.036;2023-04-03T07:08:37;2.88;;;1.40;;
22298;SDS011;11317;51.072;17.036;2023-04-03T07:11:03;1.67;;;1.40;;
22298;SDS011;11317;51.072;17.036;2023-04-03T07:13:29;2.17;;;1.42;;
22298;SDS011;11317;51.072;17.036;2023-04-03T07:15:56;3.20;;;1.80;;
22298;SDS011;11317;51.072;17.036;2023-04-03T07:18:22;5.93;;;1.55;;
22298;SDS011;11317;51.072;17.036;2023-04-03T07:20:48;1.20;;;1.00;;
22298;SDS011;11317;51.072;17.036;2023-04-03T07:23:15;8.48;;;1.70;;
22298;SDS011;11317;51.072;17.036;2023-04-03T07:25:48;3.50;;;1.45;;
22298;SDS011;11317;51.072;17.036;2023-04-03T07:28:14;1.88;;;1.20;;
22298;SDS011;11317;51.072;17.036;2023-04-03T07:33:10;3.25;;;1.42;;
22298;SDS011;11317;51.072;17.036;2023-04-03T07:35:36;4.28;;;1.75;;
22298;SDS011;11317;51.072;17.036;2023-04-03T07:38:03;2.70;;;1.38;;
22298;SDS011;11317;51.072;17.036;2023-04-03T07:40:30;3.53;;;1.40;;
22298;SDS011;11317;51.072;17.036;2023-04-03T07:42:56;3.53;;;1.70;;
22298;SDS011;11317;51.072;17.036;2023-04-03T07:45:23;1.80;;;1.40;;
22298;SDS011;11317;51.072;17.036;2023-04-03T07:47:50;3.35;;;1.40;;
22298;SDS011;11317;51.072;17.036;2023-04-03T07:50:16;2.97;;;1.20;;
22298;SDS011;11317;51.072;17.036;2023-04-03T07:52:43;4.07;;;1.67;;
22298;SDS011;11317;51.072;17.036;2023-04-03T07:55:09;7.43;;;1.48;;
22298;SDS011;11317;51.072;17.036;2023-04-03T07:57:35;3.08;;;1.35;;
22298;SDS011;11317;51.072;17.036;2023-04-03T08:00:05;2.00;;;1.20;;
22298;SDS011;11317;51.072;17.036;2023-04-03T08:02:31;2.08;;;1.42;;
22298;SDS011;11317;51.072;17.036;2023-04-03T08:04:58;2.35;;;1.27;;
22298;SDS011;11317;51.072;17.036;2023-04-03T08:07:24;3.95;;;1.52;;
22298;SDS011;11317;51.072;17.036;2023-04-03T08:09:51;1.40;;;1.25;;
22298;SDS011;11317;51.072;17.036;2023-04-03T08:12:17;2.15;;;1.30;;
22298;SDS011;11317;51.072;17.036;2023-04-03T08:14:43;1.58;;;1.17;;
22298;SDS011;11317;51.072;17.036;2023-04-03T08:17:10;4.30;;;1.20;;
22298;SDS011;11317;51.072;17.036;2023-04-03T08:19:39;1.98;;;1.38;;
22298;SDS011;11317;51.072;17.036;2023-04-03T08:22:05;2.15;;;1.20;;
22298;SDS011;11317;51.072;17.036;2023-04-03T08:24:32;4.00;;;1.40;;
22298;SDS011;11317;51.072;17.036;2023-04-03T08:26:59;2.92;;;1.40;;
22298;SDS011;11317;51.072;17.036;2023-04-03T08:29:25;2.78;;;1.38;;
22298;SDS011;11317;51.072;17.036;2023-04-03T08:31:51;3.67;;;1.70;;
22298;SDS011;11317;51.072;17.036;2023-04-03T08:34:17;2.78;;;1.25;;
22298;SDS011;11317;51.072;17.036;2023-04-03T08:36:44;2.53;;;1.08;;
22298;SDS011;11317;51.072;17.036;2023-04-03T08:39:10;2.20;;;1.40;;
22298;SDS011;11317;51.072;17.036;2023-04-03T08:41:37;5.35;;;1.70;;
22298;SDS011;11317;51.072;17.036;2023-04-03T08:47:04;3.38;;;1.23;;
22298;SDS011;11317;51.072;17.036;2023-04-03T08:49:46;1.90;;;1.38;;
22298;SDS011;11317;51.072;17.036;2023-04-03T08:52:35;2.33;;;1.30;;
22298;SDS011;11317;51.072;17.036;2023-04-03T08:55:29;2.75;;;1.20;;
22298;SDS011;11317;51.072;17.036;2023-04-03T09:00:28;1.70;;;1.08;;
22298;SDS011;11317;51.072;17.036;2023-04-03T09:02:59;2.83;;;1.10;;
22298;SDS011;11317;51.072;17.036;2023-04-03T09:08:40;1.52;;;0.95;;
22298;SDS011;11317;51.072;17.036;2023-04-03T09:10:44;2.50;;;1.15;;
22298;SDS011;11317;51.072;17.036;2023-04-03T09:15:37;1.38;;;1.10;;
22298;SDS011;11317;51.072;17.036;2023-04-03T09:18:26;0.90;;;0.80;;
22298;SDS011;11317;51.072;17.036;2023-04-03T09:20:53;1.95;;;1.05;;
22298;SDS011;11317;51.072;17.036;2023-04-03T09:23:33;3.45;;;1.08;;
22298;SDS011;11317;51.072;17.036;2023-04-03T09:26:13;2.10;;;0.93;;
22298;SDS011;11317;51.072;17.036;2023-04-03T09:28:41;1.08;;;0.95;;
22298;SDS011;11317;51.072;17.036;2023-04-03T09:31:16;2.08;;;1.08;;
22298;SDS011;11317;51.072;17.036;2023-04-03T09:33:44;1.65;;;0.85;;
22298;SDS011;11317;51.072;17.036;2023-04-03T09:36:11;3.65;;;1.08;;
22298;SDS011;11317;51.072;17.036;2023-04-03T09:38:37;3.85;;;1.05;;
22298;SDS011;11317;51.072;17.036;2023-04-03T09:41:06;2.20;;;1.00;;
22298;SDS011;11317;51.072;17.036;2023-04-03T09:43:34;1.00;;;0.90;;
22298;SDS011;11317;51.072;17.036;2023-04-03T09:49:04;0.70;;;0.70;;
22298;SDS011;11317;51.072;17.036;2023-04-03T09:51:31;2.17;;;1.00;;
22298;SDS011;11317;51.072;17.036;2023-04-03T09:53:58;6.57;;;0.90;;
22298;SDS011;11317;51.072;17.036;2023-04-03T09:56:28;1.17;;;0.98;;
22298;SDS011;11317;51.072;17.036;2023-04-03T10:01:34;1.58;;;1.20;;
22298;SDS011;11317;51.072;17.036;2023-04-03T10:04:14;2.97;;;1.20;;
22298;SDS011;11317;51.072;17.036;2023-04-03T10:06:47;1.25;;;0.90;;
22298;SDS011;11317;51.072;17.036;2023-04-03T10:09:26;0.93;;;0.88;;
22298;SDS011;11317;51.072;17.036;2023-04-03T10:12:06;2.33;;;1.20;;
22298;SDS011;11317;51.072;17.036;2023-04-03T10:14:37;2.83;;;1.10;;
